createdAt,value
2023-02-06T00:01:23.196Z,20.73
2023-02-06T00:04:11.692Z,18.70
2023-02-06T00:07:00.092Z,20.77
2023-02-06T00:09:48.596Z,21.43
2023-02-06T00:12:37.349Z,21.03
2023-02-06T00:15:27.342Z,23.03
2023-02-06T00:18:15.973Z,21.03
2023-02-06T00:21:04.476Z,24.80
2023-02-06T00:23:54.312Z,19.57
2023-02-06T00:26:42.817Z,23.07
2023-02-06T00:29:31.244Z,23.10
2023-02-06T00:32:21.170Z,22.73
2023-02-06T00:35:09.649Z,22.43
2023-02-06T00:37:59.764Z,22.77
2023-02-06T00:40:48.601Z,21.80
2023-02-06T00:43:38.298Z,21.47
2023-02-06T00:46:26.949Z,28.87
2023-02-06T00:49:16.841Z,23.67
2023-02-06T00:52:05.321Z,22.10
2023-02-06T00:54:53.867Z,20.97
2023-02-06T00:57:42.334Z,22.40
2023-02-06T01:00:30.830Z,22.33
2023-02-06T01:03:19.297Z,24.90
2023-02-06T01:06:09.154Z,23.50
2023-02-06T01:08:57.683Z,26.53
2023-02-06T01:11:46.335Z,26.40
2023-02-06T01:14:34.798Z,27.53
2023-02-06T01:17:23.281Z,23.37
2023-02-06T01:20:16.153Z,22.27
2023-02-06T01:23:06.044Z,27.60
2023-02-06T01:25:54.521Z,27.73
2023-02-06T01:28:44.611Z,25.63
2023-02-06T01:31:33.144Z,24.90
2023-02-06T01:34:21.691Z,25.10
2023-02-06T01:37:10.213Z,25.83
2023-02-06T01:40:00.031Z,24.23
2023-02-06T01:42:48.576Z,27.97
2023-02-06T01:45:45.377Z,21.77
2023-02-06T01:48:37.481Z,24.87
2023-02-06T01:51:27.914Z,28.20
2023-02-06T01:54:16.850Z,25.10
2023-02-06T01:57:08.470Z,27.37
2023-02-06T02:00:01.293Z,26.80
2023-02-06T02:02:50.351Z,24.90
2023-02-06T02:05:40.089Z,28.73
2023-02-06T02:08:33.011Z,26.53
2023-02-06T02:11:23.516Z,26.07
2023-02-06T02:14:14.824Z,23.80
2023-02-06T02:17:16.402Z,26.90
2023-02-06T02:20:39.558Z,23.20
2023-02-06T02:23:34.500Z,28.43
2023-02-06T02:26:59.341Z,34.40
2023-02-06T02:30:26.864Z,26.37
2023-02-06T02:33:40.143Z,33.17
2023-02-06T02:36:32.005Z,30.17
2023-02-06T02:39:25.074Z,34.73
2023-02-06T02:42:15.906Z,33.33
2023-02-06T02:45:09.478Z,32.73
2023-02-06T02:48:02.850Z,33.13
2023-02-06T02:50:51.901Z,35.63
2023-02-06T02:53:41.797Z,36.63
2023-02-06T02:56:30.754Z,37.67
2023-02-06T02:59:24.167Z,33.63
2023-02-06T03:02:14.899Z,35.40
2023-02-06T03:05:05.762Z,39.30
2023-02-06T03:08:03.137Z,39.17
2023-02-06T03:11:04.450Z,34.67
2023-02-06T03:13:56.115Z,44.00
2023-02-06T03:16:47.271Z,37.50
2023-02-06T03:19:37.958Z,38.27
2023-02-06T03:22:27.207Z,34.13
2023-02-06T03:25:19.250Z,40.33
2023-02-06T03:28:14.156Z,42.33
2023-02-06T03:31:05.030Z,37.30
2023-02-06T03:34:00.772Z,37.63
2023-02-06T03:36:49.905Z,39.50
2023-02-06T03:39:38.555Z,39.90
2023-02-06T03:42:27.927Z,35.57
2023-02-06T03:45:20.938Z,39.47
2023-02-06T03:48:12.559Z,35.63
2023-02-06T03:51:03.705Z,41.43
2023-02-06T03:53:54.414Z,36.10
2023-02-06T03:56:45.801Z,36.33
2023-02-06T03:59:34.359Z,35.80
2023-02-06T04:02:25.554Z,34.90
2023-02-06T04:05:14.842Z,38.10
2023-02-06T04:08:03.334Z,37.67
2023-02-06T04:10:51.826Z,34.03
2023-02-06T04:13:40.269Z,40.60
2023-02-06T04:16:28.751Z,40.20
2023-02-06T04:19:18.584Z,36.90
2023-02-06T04:22:08.048Z,41.37
2023-02-06T04:24:56.459Z,36.07
2023-02-06T04:27:44.995Z,37.07
2023-02-06T04:30:33.568Z,36.80
2023-02-06T04:33:22.198Z,36.13
2023-02-06T04:36:12.002Z,38.50
2023-02-06T04:39:00.458Z,41.07
2023-02-06T04:41:49.149Z,35.00
2023-02-06T04:44:38.471Z,36.87
2023-02-06T04:47:27.006Z,36.00
2023-02-06T04:50:15.505Z,39.00
2023-02-06T04:53:05.361Z,40.07
2023-02-06T04:55:55.041Z,39.30
2023-02-06T04:58:43.477Z,36.60
2023-02-06T05:01:32.021Z,37.37
2023-02-06T05:04:20.480Z,35.10
2023-02-06T05:07:08.888Z,33.30
2023-02-06T05:09:58.730Z,33.13
2023-02-06T05:12:50.767Z,35.00
2023-02-06T05:15:39.712Z,38.47
2023-02-06T05:18:28.270Z,38.17
2023-02-06T05:21:16.754Z,36.00
2023-02-06T05:24:05.382Z,37.10
2023-02-06T05:26:57.787Z,41.53
2023-02-06T05:29:46.229Z,34.70
2023-02-06T05:32:34.732Z,39.70
2023-02-06T05:35:23.688Z,39.43
2023-02-06T05:38:12.159Z,30.70
2023-02-06T05:41:00.830Z,31.20
2023-02-06T05:43:50.703Z,32.93
2023-02-06T05:46:39.364Z,36.40
2023-02-06T05:49:27.919Z,37.10
2023-02-06T05:52:16.611Z,35.33
2023-02-06T05:55:05.330Z,37.27
2023-02-06T05:57:53.771Z,33.60
2023-02-06T06:00:43.574Z,32.73
2023-02-06T06:03:33.510Z,32.93
2023-02-06T06:06:22.137Z,33.57
2023-02-06T06:09:11.908Z,31.93
2023-02-06T06:12:00.438Z,36.40
2023-02-06T06:14:48.871Z,34.13
2023-02-06T06:17:38.734Z,33.07
2023-02-06T06:20:27.292Z,33.97
2023-02-06T06:23:15.973Z,29.83
2023-02-06T06:26:04.543Z,33.33
2023-02-06T06:28:53.126Z,28.93
2023-02-06T06:31:41.701Z,31.03
2023-02-06T06:34:31.649Z,30.50
2023-02-06T06:37:22.528Z,33.60
2023-02-06T06:40:11.881Z,33.93
2023-02-06T06:43:00.394Z,33.30
2023-02-06T06:45:48.949Z,35.67
2023-02-06T06:48:38.309Z,29.60
2023-02-06T06:51:29.354Z,33.50
2023-02-06T06:54:19.544Z,32.43
2023-02-06T06:57:09.529Z,31.30
2023-02-06T06:59:57.988Z,39.97
2023-02-06T07:02:46.509Z,34.40
2023-02-06T07:05:35.409Z,33.30
2023-02-06T07:08:25.461Z,31.13
2023-02-06T07:11:15.469Z,29.97
2023-02-06T07:14:04.330Z,35.30
2023-02-06T07:16:52.771Z,31.27
2023-02-06T07:19:41.221Z,32.93
2023-02-06T07:22:29.737Z,28.47
2023-02-06T07:25:20.296Z,30.20
2023-02-06T07:28:09.894Z,29.17
2023-02-06T07:31:01.001Z,31.67
2023-02-06T07:33:49.596Z,32.53
2023-02-06T07:36:38.111Z,29.70
2023-02-06T07:39:27.053Z,31.83
2023-02-06T07:42:16.843Z,31.53
2023-02-06T07:45:05.690Z,31.27
2023-02-06T07:47:54.504Z,39.17
2023-02-06T07:50:42.943Z,31.53
2023-02-06T07:53:32.974Z,28.77
2023-02-06T07:56:23.213Z,31.70
2023-02-06T07:59:13.104Z,29.00
2023-02-06T08:02:01.650Z,30.43
2023-02-06T08:04:50.199Z,26.70
2023-02-06T08:07:38.749Z,29.23
2023-02-06T08:10:27.554Z,27.37
2023-02-06T08:13:16.270Z,26.47
2023-02-06T08:16:08.728Z,28.27
2023-02-06T08:18:57.176Z,25.80
2023-02-06T08:21:45.781Z,26.80
2023-02-06T08:24:34.622Z,24.43
2023-02-06T08:27:23.138Z,31.20
2023-02-06T08:30:13.095Z,26.40
2023-02-06T08:33:03.013Z,26.63
2023-02-06T08:35:51.680Z,28.67
2023-02-06T08:38:40.795Z,24.37
2023-02-06T08:41:31.403Z,30.03
2023-02-06T08:44:19.935Z,28.07
2023-02-06T08:47:10.433Z,30.53
2023-02-06T08:50:02.978Z,28.77
2023-02-06T08:52:51.887Z,27.00
2023-02-06T08:55:40.689Z,29.33
2023-02-06T08:58:29.585Z,33.97
2023-02-06T09:01:18.239Z,26.43
2023-02-06T09:04:09.109Z,25.50
2023-02-06T09:06:58.965Z,27.20
2023-02-06T09:09:47.402Z,24.60
2023-02-06T09:12:35.935Z,20.03
2023-02-06T09:15:24.437Z,25.90
2023-02-06T09:18:12.942Z,30.37
2023-02-06T09:21:06.667Z,26.47
2023-02-06T09:23:58.992Z,27.17
2023-02-06T09:26:59.491Z,31.90
2023-02-06T09:29:48.967Z,28.23
2023-02-06T09:32:37.888Z,22.03
2023-02-06T09:35:26.492Z,23.40
2023-02-06T09:38:14.988Z,21.57
2023-02-06T09:41:06.725Z,21.47
2023-02-06T09:43:57.567Z,22.70
2023-02-06T09:46:49.195Z,16.10
2023-02-06T09:49:40.779Z,16.57
2023-02-06T09:52:37.954Z,13.67
2023-02-06T09:55:30.646Z,14.60
2023-02-06T09:58:24.517Z,13.87
2023-02-06T10:01:18.866Z,11.07
2023-02-06T10:04:34.025Z,13.23
2023-02-06T10:07:53.332Z,12.07
2023-02-06T10:10:44.522Z,9.63
2023-02-06T10:13:38.583Z,11.30
2023-02-06T10:16:35.592Z,11.90
2023-02-06T10:19:30.435Z,10.83
2023-02-06T10:22:24.213Z,9.83
2023-02-06T10:25:18.600Z,10.53
2023-02-06T10:28:17.217Z,9.97
2023-02-06T10:31:20.122Z,13.43
2023-02-06T10:34:49.868Z,13.23
2023-02-06T10:38:22.919Z,10.20
2023-02-06T10:41:15.854Z,12.20
2023-02-06T10:44:12.359Z,13.77
2023-02-06T10:47:02.364Z,14.83
2023-02-06T10:49:53.642Z,16.87
2023-02-06T10:52:42.470Z,13.73
2023-02-06T10:55:34.963Z,15.87
2023-02-06T10:58:26.709Z,19.43
2023-02-06T11:01:25.422Z,15.57
2023-02-06T11:04:20.049Z,14.33
2023-02-06T11:07:10.196Z,19.47
2023-02-06T11:09:58.782Z,14.57
2023-02-06T11:12:51.301Z,15.37
2023-02-06T11:15:42.679Z,15.83
2023-02-06T11:18:34.769Z,19.07
2023-02-06T11:21:50.897Z,17.10
2023-02-06T11:24:40.614Z,16.33
2023-02-06T11:27:29.429Z,16.97
2023-02-06T11:30:33.512Z,14.40
2023-02-06T11:33:24.081Z,14.90
2023-02-06T11:36:24.224Z,14.40
2023-02-06T11:39:26.039Z,15.70
2023-02-06T11:42:21.242Z,15.47
2023-02-06T11:45:26.870Z,12.47
2023-02-06T11:48:34.777Z,14.60
2023-02-06T11:51:24.196Z,11.63
2023-02-06T11:54:22.417Z,12.90
2023-02-06T11:57:23.020Z,12.73
2023-02-06T12:00:21.377Z,10.30
2023-02-06T12:03:28.658Z,12.13
2023-02-06T12:06:21.898Z,11.10
2023-02-06T12:09:12.741Z,13.00
2023-02-06T12:12:06.339Z,9.83
2023-02-06T12:14:57.637Z,9.33
2023-02-06T12:17:48.433Z,10.70
2023-02-06T12:20:46.903Z,10.83
2023-02-06T12:23:38.983Z,8.83
2023-02-06T12:26:30.287Z,8.60
2023-02-06T12:29:24.041Z,10.77
2023-02-06T12:32:15.214Z,7.83
2023-02-06T12:35:15.412Z,10.03
2023-02-06T12:38:08.001Z,7.10
2023-02-06T12:41:08.460Z,7.87
2023-02-06T12:44:00.653Z,7.57
2023-02-06T12:46:54.371Z,9.37
2023-02-06T12:49:50.468Z,7.07
2023-02-06T12:52:42.595Z,7.40
2023-02-06T12:55:34.518Z,7.17
2023-02-06T12:58:28.016Z,7.67
2023-02-06T13:01:34.809Z,7.07
2023-02-06T13:04:26.701Z,6.60
2023-02-06T13:07:18.366Z,7.60
2023-02-06T13:10:08.098Z,6.70
2023-02-06T13:12:58.533Z,6.20
2023-02-06T13:15:55.557Z,6.37
2023-02-06T13:18:54.337Z,4.47
2023-02-06T13:21:52.277Z,5.50
2023-02-06T13:24:41.949Z,4.87
2023-02-06T13:27:38.988Z,5.13
2023-02-06T13:30:46.646Z,5.30
2023-02-06T13:33:41.138Z,7.37
2023-02-06T13:36:50.706Z,6.50
2023-02-06T13:39:39.232Z,5.93
2023-02-06T13:42:36.611Z,5.10
2023-02-06T13:45:27.653Z,5.47
2023-02-06T13:48:51.283Z,5.67
2023-02-06T13:51:48.342Z,5.17
2023-02-06T13:54:56.745Z,5.27
2023-02-06T13:58:16.625Z,4.87
2023-02-06T14:01:06.038Z,4.70
2023-02-06T14:03:55.647Z,5.93
2023-02-06T14:06:55.132Z,5.73
2023-02-06T14:10:23.065Z,5.50
2023-02-06T14:13:21.932Z,5.47
2023-02-06T14:16:22.703Z,4.73
2023-02-06T14:19:16.574Z,6.57
2023-02-06T14:22:10.685Z,5.80
2023-02-06T14:25:09.996Z,5.83
2023-02-06T14:28:06.995Z,5.93
2023-02-06T14:31:01.797Z,6.13
2023-02-06T14:34:08.197Z,5.57
2023-02-06T14:37:10.749Z,6.97
2023-02-06T14:40:04.477Z,6.10
2023-02-06T14:42:57.064Z,5.10
2023-02-06T14:46:04.612Z,4.80
2023-02-06T14:48:55.894Z,5.37
2023-02-06T14:51:49.896Z,5.40
2023-02-06T14:54:39.468Z,5.90
2023-02-06T14:57:30.806Z,5.97
2023-02-06T15:00:21.941Z,5.87
2023-02-06T15:03:16.100Z,6.13
2023-02-06T15:06:06.676Z,6.67
2023-02-06T15:08:55.238Z,6.37
2023-02-06T15:11:51.562Z,6.90
2023-02-06T15:14:40.278Z,6.00
2023-02-06T15:17:31.795Z,6.73
2023-02-06T15:20:29.122Z,6.23
2023-02-06T15:23:28.644Z,7.13
2023-02-06T15:26:24.408Z,7.17
2023-02-06T15:29:18.846Z,10.40
2023-02-06T15:32:17.899Z,6.17
2023-02-06T15:35:20.061Z,6.87
2023-02-06T15:38:11.489Z,12.57
2023-02-06T15:41:01.807Z,6.10
2023-02-06T15:43:51.931Z,6.80
2023-02-06T15:46:40.802Z,6.00
2023-02-06T15:49:35.981Z,7.80
2023-02-06T15:52:38.282Z,6.33
2023-02-06T15:55:29.486Z,7.40
2023-02-06T15:58:18.129Z,5.73
2023-02-06T16:01:08.575Z,6.80
2023-02-06T16:04:00.341Z,6.60
2023-02-06T16:07:01.173Z,8.03
2023-02-06T16:09:53.988Z,7.50
2023-02-06T16:12:43.693Z,8.07
2023-02-06T16:15:34.575Z,7.97
2023-02-06T16:18:28.197Z,7.13
2023-02-06T16:21:25.044Z,6.87
2023-02-06T16:24:16.609Z,9.57
2023-02-06T16:27:16.902Z,8.23
2023-02-06T16:30:05.719Z,8.47
2023-02-06T16:32:55.472Z,6.37
2023-02-06T16:35:44.075Z,9.30
2023-02-06T16:38:32.867Z,8.43
2023-02-06T16:41:27.913Z,8.50
2023-02-06T16:44:18.079Z,16.27
2023-02-06T16:47:06.657Z,17.30
2023-02-06T16:49:55.178Z,16.73
2023-02-06T16:52:48.431Z,12.23
2023-02-06T16:55:36.981Z,14.73
2023-02-06T16:58:27.083Z,13.90
2023-02-06T17:01:22.949Z,12.37
2023-02-06T17:04:11.556Z,12.70
2023-02-06T17:07:00.101Z,12.73
2023-02-06T17:09:49.524Z,13.40
2023-02-06T17:12:38.156Z,11.33
2023-02-06T17:15:26.720Z,11.63
2023-02-06T17:18:18.101Z,9.97
2023-02-06T17:21:06.920Z,9.53
2023-02-06T17:23:55.418Z,10.20
2023-02-06T17:26:43.926Z,10.80
2023-02-06T17:29:33.117Z,10.77
2023-02-06T17:32:22.831Z,9.87
2023-02-06T17:35:12.884Z,9.97
2023-02-06T17:38:01.425Z,11.10
2023-02-06T17:40:49.971Z,9.87
2023-02-06T17:43:38.602Z,11.73
2023-02-06T17:46:27.175Z,10.00
2023-02-06T17:49:15.902Z,9.27
2023-02-06T17:52:06.009Z,11.30
2023-02-06T17:54:54.628Z,10.37
2023-02-06T17:57:43.279Z,12.47
2023-02-06T18:00:31.984Z,9.73
2023-02-06T18:03:20.559Z,12.33
2023-02-06T18:06:10.606Z,32.53
2023-02-06T18:09:00.802Z,32.70
2023-02-06T18:11:49.441Z,14.17
2023-02-06T18:14:39.580Z,12.17
2023-02-06T18:17:28.219Z,16.30
2023-02-06T18:20:16.986Z,19.93
2023-02-06T18:23:05.530Z,20.87
2023-02-06T18:25:55.478Z,14.27
2023-02-06T18:28:44.118Z,13.23
2023-02-06T18:31:34.170Z,10.57
2023-02-06T18:34:22.724Z,13.23
2023-02-06T18:37:11.255Z,14.67
2023-02-06T18:40:00.124Z,16.40
2023-02-06T18:42:53.969Z,15.97
2023-02-06T18:45:43.339Z,26.40
2023-02-06T18:48:31.849Z,10.40
2023-02-06T18:51:20.402Z,11.60
2023-02-06T18:54:09.906Z,8.87
2023-02-06T18:56:58.462Z,14.50
2023-02-06T18:59:48.772Z,8.20
2023-02-06T19:02:37.526Z,10.60
2023-02-06T19:05:26.520Z,9.43
2023-02-06T19:08:14.975Z,14.50
2023-02-06T19:11:03.447Z,9.07
2023-02-06T19:13:51.988Z,9.67
2023-02-06T19:16:44.518Z,9.30
2023-02-06T19:19:33.071Z,10.37
2023-02-06T19:22:21.645Z,10.50
2023-02-06T19:25:14.347Z,13.33
2023-02-06T19:28:03.564Z,14.47
2023-02-06T19:30:52.120Z,17.63
2023-02-06T19:33:42.694Z,18.47
2023-02-06T19:36:32.165Z,17.23
2023-02-06T19:39:20.942Z,16.17
2023-02-06T19:42:10.746Z,16.67
2023-02-06T19:44:59.278Z,15.60
2023-02-06T19:47:47.794Z,17.37
2023-02-06T19:50:38.553Z,17.27
2023-02-06T19:53:27.293Z,15.77
2023-02-06T19:56:20.212Z,13.40
2023-02-06T19:59:17.913Z,13.40
2023-02-06T20:02:06.479Z,11.17
2023-02-06T20:04:54.977Z,12.53
2023-02-06T20:07:44.809Z,8.10
2023-02-06T20:10:33.364Z,9.67
2023-02-06T20:13:21.906Z,8.90
2023-02-06T20:16:15.981Z,11.70
2023-02-06T20:19:07.194Z,8.90
2023-02-06T20:21:57.722Z,8.13
2023-02-06T20:24:47.844Z,11.13
2023-02-06T20:27:36.334Z,7.23
2023-02-06T20:30:24.859Z,7.67
2023-02-06T20:33:13.526Z,8.27
2023-02-06T20:36:06.584Z,8.00
2023-02-06T20:38:56.814Z,10.80
2023-02-06T20:41:46.981Z,10.37
2023-02-06T20:44:35.483Z,8.83
2023-02-06T20:47:24.067Z,7.93
2023-02-06T20:50:13.565Z,8.20
2023-02-06T20:53:02.418Z,7.37
2023-02-06T20:55:50.934Z,8.07
2023-02-06T20:58:40.940Z,8.00
2023-02-06T21:01:31.297Z,9.23
2023-02-06T21:04:20.140Z,6.50
2023-02-06T21:07:08.736Z,7.60
2023-02-06T21:09:59.854Z,6.20
2023-02-06T21:12:48.378Z,8.77
2023-02-06T21:15:38.308Z,9.60
2023-02-06T21:18:31.842Z,10.60
2023-02-06T21:21:21.003Z,9.13
2023-02-06T21:24:10.043Z,9.43
2023-02-06T21:26:58.537Z,8.10
2023-02-06T21:29:47.005Z,7.27
2023-02-06T21:32:36.910Z,7.47
2023-02-06T21:35:28.643Z,8.27
2023-02-06T21:38:17.290Z,6.70
2023-02-06T21:41:06.824Z,7.07
2023-02-06T21:43:55.632Z,11.40
2023-02-06T21:46:44.074Z,11.13
2023-02-06T21:49:33.936Z,13.10
2023-02-06T21:52:22.585Z,8.97
2023-02-06T21:55:11.658Z,7.37
2023-02-06T21:58:00.970Z,8.13
2023-02-06T22:00:49.502Z,9.00
2023-02-06T22:03:37.984Z,7.70
2023-02-06T22:06:28.903Z,8.30
2023-02-06T22:09:18.887Z,8.37
2023-02-06T22:12:07.860Z,8.50
2023-02-06T22:14:56.324Z,9.40
2023-02-06T22:17:44.821Z,11.50
2023-02-06T22:20:33.311Z,11.07
2023-02-06T22:23:23.096Z,7.40
2023-02-06T22:26:13.786Z,8.00
2023-02-06T22:29:02.267Z,8.43
2023-02-06T22:31:50.747Z,7.60
2023-02-06T22:34:39.280Z,7.87
2023-02-06T22:37:27.964Z,6.73
2023-02-06T22:40:18.239Z,8.10
2023-02-06T22:43:06.731Z,7.40
2023-02-06T22:45:55.274Z,7.57
2023-02-06T22:48:43.762Z,10.70
2023-02-06T22:51:32.248Z,8.47
2023-02-06T22:54:21.055Z,8.47
2023-02-06T22:57:10.882Z,7.63
2023-02-06T22:59:59.381Z,8.07
2023-02-06T23:02:47.873Z,8.53
2023-02-06T23:05:36.904Z,9.07
2023-02-06T23:08:27.297Z,7.40
2023-02-06T23:11:16.116Z,7.80
2023-02-06T23:14:07.110Z,8.40
2023-02-06T23:16:55.610Z,7.77
2023-02-06T23:19:44.140Z,9.43
2023-02-06T23:22:32.579Z,7.87
2023-02-06T23:25:21.041Z,9.47
2023-02-06T23:28:09.514Z,9.50
2023-02-06T23:30:59.437Z,8.13
2023-02-06T23:33:47.935Z,10.47
2023-02-06T23:36:36.515Z,8.20
2023-02-06T23:39:25.032Z,8.20
2023-02-06T23:42:13.478Z,8.93
2023-02-06T23:45:02.242Z,15.00
2023-02-06T23:47:52.128Z,9.13
2023-02-06T23:50:40.579Z,9.80
2023-02-06T23:53:29.174Z,9.90
2023-02-06T23:56:19.079Z,9.83
2023-02-06T23:59:07.707Z,8.70
